sensor_id;sensor_type;location;lat;lon;timestamp;pressure;altitude;pressure_sealevel;temperature;humidity
54262;BME280;40174;52.364;6.452;2023-05-19T00:00:55;102536.13;;;8.99;100.00
54262;BME280;40174;52.364;6.452;2023-05-19T00:03:22;102534.66;;;8.92;100.00
54262;BME280;40174;52.364;6.452;2023-05-19T00:05:52;102537.31;;;8.92;100.00
54262;BME280;40174;52.364;6.452;2023-05-19T00:08:21;102545.38;;;8.89;100.00
54262;BME280;40174;52.364;6.452;2023-05-19T00:10:48;102537.47;;;8.89;100.00
54262;BME280;40174;52.364;6.452;2023-05-19T00:13:15;102533.97;;;8.88;100.00
54262;BME280;40174;52.364;6.452;2023-05-19T00:15:43;102545.53;;;8.86;100.00
54262;BME280;40174;52.364;6.452;2023-05-19T00:18:09;102534.03;;;8.87;100.00
54262;BME280;40174;52.364;6.452;2023-05-19T00:20:38;102535.88;;;8.85;100.00
54262;BME280;40174;52.364;6.452;2023-05-19T00:23:07;102533.47;;;8.80;100.00
54262;BME280;40174;52.364;6.452;2023-05-19T00:25:33;102537.94;;;8.78;100.00
54262;BME280;40174;52.364;6.452;2023-05-19T00:28:00;102529.41;;;8.73;100.00
54262;BME280;40174;52.364;6.452;2023-05-19T00:30:27;102532.03;;;8.73;100.00
54262;BME280;40174;52.364;6.452;2023-05-19T00:32:54;102538.22;;;8.72;100.00
54262;BME280;40174;52.364;6.452;2023-05-19T00:35:22;102534.03;;;8.68;100.00
54262;BME280;40174;52.364;6.452;2023-05-19T00:37:49;102534.25;;;8.63;100.00
54262;BME280;40174;52.364;6.452;2023-05-19T00:40:17;102524.59;;;8.62;100.00
54262;BME280;40174;52.364;6.452;2023-05-19T00:42:43;102529.03;;;8.62;100.00
54262;BME280;40174;52.364;6.452;2023-05-19T00:45:10;102533.44;;;8.61;100.00
54262;BME280;40174;52.364;6.452;2023-05-19T00:47:36;102524.88;;;8.56;100.00
54262;BME280;40174;52.364;6.452;2023-05-19T00:50:03;102518.97;;;8.51;100.00
54262;BME280;40174;52.364;6.452;2023-05-19T00:52:30;102525.16;;;8.50;100.00
54262;BME280;40174;52.364;6.452;2023-05-19T00:54:57;102526.88;;;8.51;100.00
54262;BME280;40174;52.364;6.452;2023-05-19T00:57:26;102512.06;;;8.48;100.00
54262;BME280;40174;52.364;6.452;2023-05-19T00:59:53;102514.69;;;8.48;100.00
54262;BME280;40174;52.364;6.452;2023-05-19T01:02:20;102503.34;;;8.46;100.00
54262;BME280;40174;52.364;6.452;2023-05-19T01:04:49;102505.25;;;8.43;100.00
54262;BME280;40174;52.364;6.452;2023-05-19T01:07:17;102505.25;;;8.43;100.00
54262;BME280;40174;52.364;6.452;2023-05-19T01:09:46;102501.09;;;8.37;100.00
54262;BME280;40174;52.364;6.452;2023-05-19T01:12:13;102496.88;;;8.33;100.00
54262;BME280;40174;52.364;6.452;2023-05-19T01:14:41;102503.16;;;8.30;100.00
54262;BME280;40174;52.364;6.452;2023-05-19T01:17:13;102506.00;;;8.26;100.00
54262;BME280;40174;52.364;6.452;2023-05-19T01:19:51;102500.94;;;8.21;100.00
54262;BME280;40174;52.364;6.452;2023-05-19T01:22:35;102500.13;;;8.19;100.00
54262;BME280;40174;52.364;6.452;2023-05-19T01:28:19;102497.16;;;8.06;100.00
54262;BME280;40174;52.364;6.452;2023-05-19T01:30:55;102504.06;;;8.09;100.00
54262;BME280;40174;52.364;6.452;2023-05-19T01:33:24;102509.34;;;8.09;100.00
54262;BME280;40174;52.364;6.452;2023-05-19T01:35:52;102509.63;;;8.03;100.00
54262;BME280;40174;52.364;6.452;2023-05-19T01:38:21;102505.28;;;8.02;100.00
54262;BME280;40174;52.364;6.452;2023-05-19T01:40:51;102506.31;;;7.98;100.00
54262;BME280;40174;52.364;6.452;2023-05-19T01:43:20;102509.69;;;8.01;100.00
54262;BME280;40174;52.364;6.452;2023-05-19T01:45:47;102506.41;;;7.96;100.00
54262;BME280;40174;52.364;6.452;2023-05-19T01:48:16;102506.72;;;7.88;100.00
54262;BME280;40174;52.364;6.452;2023-05-19T01:50:44;102505.00;;;7.87;100.00
54262;BME280;40174;52.364;6.452;2023-05-19T01:53:11;102517.38;;;7.85;100.00
54262;BME280;40174;52.364;6.452;2023-05-19T01:55:42;102511.50;;;7.79;100.00
54262;BME280;40174;52.364;6.452;2023-05-19T01:58:16;102501.44;;;7.68;100.00
54262;BME280;40174;52.364;6.452;2023-05-19T02:00:51;102505.00;;;7.67;100.00
54262;BME280;40174;52.364;6.452;2023-05-19T02:03:35;102500.03;;;7.59;100.00
54262;BME280;40174;52.364;6.452;2023-05-19T02:06:17;102508.91;;;7.57;100.00
54262;BME280;40174;52.364;6.452;2023-05-19T02:08:56;102508.16;;;7.53;100.00
54262;BME280;40174;52.364;6.452;2023-05-19T02:11:29;102500.53;;;7.47;100.00
54262;BME280;40174;52.364;6.452;2023-05-19T02:13:59;102499.75;;;7.45;100.00
54262;BME280;40174;52.364;6.452;2023-05-19T02:16:29;102489.47;;;7.39;100.00
54262;BME280;40174;52.364;6.452;2023-05-19T02:18:57;102483.34;;;7.38;100.00
54262;BME280;40174;52.364;6.452;2023-05-19T02:21:24;102492.03;;;7.40;100.00
54262;BME280;40174;52.364;6.452;2023-05-19T02:23:51;102486.97;;;7.36;100.00
54262;BME280;40174;52.364;6.452;2023-05-19T02:26:18;102480.91;;;7.34;100.00
54262;BME280;40174;52.364;6.452;2023-05-19T02:28:45;102487.03;;;7.34;100.00
54262;BME280;40174;52.364;6.452;2023-05-19T02:31:12;102481.00;;;7.31;100.00
54262;BME280;40174;52.364;6.452;2023-05-19T02:33:39;102487.34;;;7.26;100.00
54262;BME280;40174;52.364;6.452;2023-05-19T02:36:08;102476.97;;;7.22;100.00
54262;BME280;40174;52.364;6.452;2023-05-19T02:38:35;102478.88;;;7.18;100.00
54262;BME280;40174;52.364;6.452;2023-05-19T02:41:02;102482.41;;;7.17;100.00
54262;BME280;40174;52.364;6.452;2023-05-19T02:43:28;102479.88;;;7.16;100.00
54262;BME280;40174;52.364;6.452;2023-05-19T02:45:55;102482.50;;;7.16;100.00
54262;BME280;40174;52.364;6.452;2023-05-19T02:48:24;102476.50;;;7.12;100.00
54262;BME280;40174;52.364;6.452;2023-05-19T02:50:51;102477.47;;;7.10;100.00
54262;BME280;40174;52.364;6.452;2023-05-19T02:53:19;102474.09;;;7.06;100.00
54262;BME280;40174;52.364;6.452;2023-05-19T02:55:46;102480.44;;;7.02;100.00
54262;BME280;40174;52.364;6.452;2023-05-19T02:58:12;102469.97;;;7.00;100.00
54262;BME280;40174;52.364;6.452;2023-05-19T03:00:39;102470.13;;;6.96;100.00
54262;BME280;40174;52.364;6.452;2023-05-19T03:03:06;102469.47;;;6.91;100.00
54262;BME280;40174;52.364;6.452;2023-05-19T03:05:34;102475.63;;;6.90;100.00
54262;BME280;40174;52.364;6.452;2023-05-19T03:08:01;102475.63;;;6.90;100.00
54262;BME280;40174;52.364;6.452;2023-05-19T03:10:29;102472.25;;;6.86;100.00
54262;BME280;40174;52.364;6.452;2023-05-19T03:12:56;102460.88;;;6.85;100.00
54262;BME280;40174;52.364;6.452;2023-05-19T03:15:22;102464.50;;;6.83;100.00
54262;BME280;40174;52.364;6.452;2023-05-19T03:17:49;102465.41;;;6.82;100.00
54262;BME280;40174;52.364;6.452;2023-05-19T03:20:16;102471.53;;;6.82;100.00
54262;BME280;40174;52.364;6.452;2023-05-19T03:22:43;102466.31;;;6.81;100.00
54262;BME280;40174;52.364;6.452;2023-05-19T03:25:10;102468.16;;;6.79;100.00
54262;BME280;40174;52.364;6.452;2023-05-19T03:27:38;102466.50;;;6.76;100.00
54262;BME280;40174;52.364;6.452;2023-05-19T03:30:06;102473.53;;;6.76;100.00
54262;BME280;40174;52.364;6.452;2023-05-19T03:32:40;102470.94;;;6.74;100.00
54262;BME280;40174;52.364;6.452;2023-05-19T03:35:07;102467.53;;;6.72;100.00
54262;BME280;40174;52.364;6.452;2023-05-19T03:37:34;102461.63;;;6.65;100.00
54262;BME280;40174;52.364;6.452;2023-05-19T03:40:03;102467.06;;;6.61;100.00
54262;BME280;40174;52.364;6.452;2023-05-19T03:42:33;102474.09;;;6.60;100.00
54262;BME280;40174;52.364;6.452;2023-05-19T03:45:01;102474.22;;;6.57;100.00
54262;BME280;40174;52.364;6.452;2023-05-19T03:47:28;102481.22;;;6.57;100.00
54262;BME280;40174;52.364;6.452;2023-05-19T03:50:22;102482.34;;;6.51;100.00
54262;BME280;40174;52.364;6.452;2023-05-19T03:52:52;102470.25;;;6.45;100.00
54262;BME280;40174;52.364;6.452;2023-05-19T03:55:27;102478.09;;;6.47;100.00
54262;BME280;40174;52.364;6.452;2023-05-19T03:57:55;102476.41;;;6.46;100.00
54262;BME280;40174;52.364;6.452;2023-05-19T04:00:23;102473.00;;;6.42;100.00
54262;BME280;40174;52.364;6.452;2023-05-19T04:02:53;102471.50;;;6.37;100.00
54262;BME280;40174;52.364;6.452;2023-05-19T04:05:20;102474.88;;;6.39;100.00
54262;BME280;40174;52.364;6.452;2023-05-19T04:07:46;102469.75;;;6.36;100.00
54262;BME280;40174;52.364;6.452;2023-05-19T04:10:13;102481.06;;;6.38;100.00
54262;BME280;40174;52.364;6.452;2023-05-19T04:12:40;102481.91;;;6.38;100.00
54262;BME280;40174;52.364;6.452;2023-05-19T04:15:08;102474.03;;;6.38;100.00
54262;BME280;40174;52.364;6.452;2023-05-19T04:17:40;102487.16;;;6.38;100.00
54262;BME280;40174;52.364;6.452;2023-05-19T04:20:09;102485.47;;;6.37;100.00
54262;BME280;40174;52.364;6.452;2023-05-19T04:22:35;102489.69;;;6.41;100.00
54262;BME280;40174;52.364;6.452;2023-05-19T04:25:04;102484.50;;;6.40;100.00
54262;BME280;40174;52.364;6.452;2023-05-19T04:27:31;102486.16;;;6.42;100.00
54262;BME280;40174;52.364;6.452;2023-05-19T04:30:01;102480.00;;;6.43;100.00
54262;BME280;40174;52.364;6.452;2023-05-19T04:32:29;102484.19;;;6.48;100.00
54262;BME280;40174;52.364;6.452;2023-05-19T04:34:58;102491.09;;;6.50;100.00
54262;BME280;40174;52.364;6.452;2023-05-19T04:37:26;102494.53;;;6.52;100.00
54262;BME280;40174;52.364;6.452;2023-05-19T04:39:54;102473.00;;;6.42;100.00
54262;BME280;40174;52.364;6.452;2023-05-19T04:42:24;102486.44;;;6.58;100.00
54262;BME280;40174;52.364;6.452;2023-05-19T04:44:56;102478.69;;;6.55;100.00
54262;BME280;40174;52.364;6.452;2023-05-19T04:47:25;102488.81;;;6.66;100.00
54262;BME280;40174;52.364;6.452;2023-05-19T04:49:52;102491.25;;;6.71;100.00
54262;BME280;40174;52.364;6.452;2023-05-19T04:52:21;102487.66;;;6.73;100.00
54262;BME280;40174;52.364;6.452;2023-05-19T04:54:49;102485.81;;;6.75;100.00
54262;BME280;40174;52.364;6.452;2023-05-19T04:57:16;102490.06;;;6.79;100.00
54262;BME280;40174;52.364;6.452;2023-05-19T04:59:45;102470.31;;;6.68;100.00
54262;BME280;40174;52.364;6.452;2023-05-19T05:02:12;102474.50;;;6.73;100.00
54262;BME280;40174;52.364;6.452;2023-05-19T05:04:39;102467.25;;;6.80;100.00
54262;BME280;40174;52.364;6.452;2023-05-19T05:07:08;102466.22;;;6.84;100.00
54262;BME280;40174;52.364;6.452;2023-05-19T05:09:37;102483.28;;;6.96;100.00
54262;BME280;40174;52.364;6.452;2023-05-19T05:12:05;102481.44;;;6.98;100.00
54262;BME280;40174;52.364;6.452;2023-05-19T05:14:34;102482.06;;;7.04;100.00
54262;BME280;40174;52.364;6.452;2023-05-19T05:17:02;102493.38;;;7.06;100.00
54262;BME280;40174;52.364;6.452;2023-05-19T05:19:30;102482.00;;;7.06;100.00
54262;BME280;40174;52.364;6.452;2023-05-19T05:21:58;102485.22;;;7.13;100.00
54262;BME280;40174;52.364;6.452;2023-05-19T05:24:25;102480.91;;;7.12;100.00
54262;BME280;40174;52.364;6.452;2023-05-19T05:26:58;102484.94;;;7.20;100.00
54262;BME280;40174;52.364;6.452;2023-05-19T05:29:26;102491.81;;;7.24;100.00
54262;BME280;40174;52.364;6.452;2023-05-19T05:31:53;102482.94;;;7.27;100.00
54262;BME280;40174;52.364;6.452;2023-05-19T05:34:21;102486.16;;;7.34;100.00
54262;BME280;40174;52.364;6.452;2023-05-19T05:36:48;102493.88;;;7.38;100.00
54262;BME280;40174;52.364;6.452;2023-05-19T05:39:16;102490.22;;;7.42;100.00
54262;BME280;40174;52.364;6.452;2023-05-19T05:41:44;102488.38;;;7.44;100.00
54262;BME280;40174;52.364;6.452;2023-05-19T05:44:13;102485.59;;;7.47;100.00
54262;BME280;40174;52.364;6.452;2023-05-19T05:46:42;102483.72;;;7.51;100.00
54262;BME280;40174;52.364;6.452;2023-05-19T05:49:10;102479.22;;;7.53;100.00
54262;BME280;40174;52.364;6.452;2023-05-19T05:51:40;102487.66;;;7.61;100.00
54262;BME280;40174;52.364;6.452;2023-05-19T05:54:10;102497.09;;;7.67;100.00
54262;BME280;40174;52.364;6.452;2023-05-19T05:56:41;102490.91;;;7.68;100.00
54262;BME280;40174;52.364;6.452;2023-05-19T05:59:09;102487.03;;;7.77;100.00
54262;BME280;40174;52.364;6.452;2023-05-19T06:01:37;102491.13;;;7.84;100.00
54262;BME280;40174;52.364;6.452;2023-05-19T06:04:07;102496.19;;;7.88;100.00
54262;BME280;40174;52.364;6.452;2023-05-19T06:06:34;102485.44;;;7.93;100.00
54262;BME280;40174;52.364;6.452;2023-05-19T06:09:03;102496.47;;;8.03;100.00
54262;BME280;40174;52.364;6.452;2023-05-19T06:11:29;102484.34;;;7.99;100.00
54262;BME280;40174;52.364;6.452;2023-05-19T06:13:57;102479.59;;;8.07;100.00
54262;BME280;40174;52.364;6.452;2023-05-19T06:16:52;102499.28;;;8.19;100.00
54262;BME280;40174;52.364;6.452;2023-05-19T06:19:20;102487.13;;;8.16;100.00
54262;BME280;40174;52.364;6.452;2023-05-19T06:21:46;102489.41;;;8.24;100.00
54262;BME280;40174;52.364;6.452;2023-05-19T06:24:14;102492.56;;;8.32;100.00
54262;BME280;40174;52.364;6.452;2023-05-19T06:26:41;102496.56;;;8.41;100.00
54262;BME280;40174;52.364;6.452;2023-05-19T06:29:07;102505.63;;;8.54;100.00
54262;BME280;40174;52.364;6.452;2023-05-19T06:31:34;102502.03;;;8.57;100.00
54262;BME280;40174;52.364;6.452;2023-05-19T06:34:17;102506.00;;;8.65;100.00
54262;BME280;40174;52.364;6.452;2023-05-19T06:36:48;102500.41;;;8.73;100.00
54262;BME280;40174;52.364;6.452;2023-05-19T06:39:17;102501.53;;;8.86;100.00
54262;BME280;40174;52.364;6.452;2023-05-19T06:41:44;102502.13;;;8.93;100.00
54262;BME280;40174;52.364;6.452;2023-05-19T06:44:23;102496.69;;;8.96;100.00
54262;BME280;40174;52.364;6.452;2023-05-19T06:46:50;102498.66;;;9.10;100.00
54262;BME280;40174;52.364;6.452;2023-05-19T06:49:18;102498.94;;;9.23;100.00
54262;BME280;40174;52.364;6.452;2023-05-19T06:51:46;102499.22;;;9.35;100.00
54262;BME280;40174;52.364;6.452;2023-05-19T06:54:13;102489.91;;;9.46;100.00
54262;BME280;40174;52.364;6.452;2023-05-19T06:56:40;102502.50;;;9.58;100.00
54262;BME280;40174;52.364;6.452;2023-05-19T06:59:07;102503.50;;;9.73;100.00
54262;BME280;40174;52.364;6.452;2023-05-19T07:01:36;102497.63;;;9.85;100.00
54262;BME280;40174;52.364;6.452;2023-05-19T07:04:03;102507.25;;;10.04;100.00
54262;BME280;40174;52.364;6.452;2023-05-19T07:06:31;102506.47;;;10.19;100.00
54262;BME280;40174;52.364;6.452;2023-05-19T07:08:58;102505.69;;;10.34;100.00
54262;BME280;40174;52.364;6.452;2023-05-19T07:11:25;102498.91;;;10.46;100.00
54262;BME280;40174;52.364;6.452;2023-05-19T07:13:52;102501.31;;;10.67;100.00
54262;BME280;40174;52.364;6.452;2023-05-19T07:16:25;102496.03;;;10.82;100.00
54262;BME280;40174;52.364;6.452;2023-05-19T07:18:53;102493.25;;;11.01;100.00
54262;BME280;40174;52.364;6.452;2023-05-19T07:21:20;102507.41;;;11.16;100.00
54262;BME280;40174;52.364;6.452;2023-05-19T07:23:49;102497.81;;;11.30;100.00
54262;BME280;40174;52.364;6.452;2023-05-19T07:26:16;102500.13;;;11.36;100.00
54262;BME280;40174;52.364;6.452;2023-05-19T07:28:42;102506.09;;;11.55;100.00
54262;BME280;40174;52.364;6.452;2023-05-19T07:31:09;102496.88;;;11.77;100.00
54262;BME280;40174;52.364;6.452;2023-05-19T07:33:35;102501.63;;;12.02;100.00
54262;BME280;40174;52.364;6.452;2023-05-19T07:36:02;102494.34;;;12.20;100.00
54262;BME280;40174;52.364;6.452;2023-05-19T07:38:30;102500.63;;;12.33;100.00
54262;BME280;40174;52.364;6.452;2023-05-19T07:41:00;102491.34;;;12.40;100.00
54262;BME280;40174;52.364;6.452;2023-05-19T07:43:27;102481.00;;;12.50;100.00
54262;BME280;40174;52.364;6.452;2023-05-19T07:45:54;102507.03;;;12.72;100.00
54262;BME280;40174;52.364;6.452;2023-05-19T07:48:21;102500.00;;;12.85;100.00
54262;BME280;40174;52.364;6.452;2023-05-19T07:50:50;102496.25;;;13.02;100.00
54262;BME280;40174;52.364;6.452;2023-05-19T07:53:17;102491.69;;;13.19;100.00
54262;BME280;40174;52.364;6.452;2023-05-19T07:55:45;102500.06;;;13.40;99.75
54262;BME280;40174;52.364;6.452;2023-05-19T07:58:13;102500.75;;;13.56;97.34
54262;BME280;40174;52.364;6.452;2023-05-19T08:00:40;102498.56;;;13.76;97.91
54262;BME280;40174;52.364;6.452;2023-05-19T08:03:08;102501.06;;;14.04;93.73
54262;BME280;40174;52.364;6.452;2023-05-19T08:05:35;102500.84;;;14.20;93.82
54262;BME280;40174;52.364;6.452;2023-05-19T08:08:02;102497.22;;;14.34;92.83
54262;BME280;40174;52.364;6.452;2023-05-19T08:10:29;102505.63;;;14.53;89.18
54262;BME280;40174;52.364;6.452;2023-05-19T08:12:55;102483.31;;;14.56;86.06
54262;BME280;40174;52.364;6.452;2023-05-19T08:15:24;102491.81;;;14.61;83.98
54262;BME280;40174;52.364;6.452;2023-05-19T08:17:51;102481.78;;;14.78;84.50
54262;BME280;40174;52.364;6.452;2023-05-19T08:20:18;102487.75;;;15.05;85.53
54262;BME280;40174;52.364;6.452;2023-05-19T08:22:46;102482.78;;;15.25;85.45
54262;BME280;40174;52.364;6.452;2023-05-19T08:25:13;102497.50;;;15.42;81.28
54262;BME280;40174;52.364;6.452;2023-05-19T08:27:40;102492.25;;;15.64;80.60
54262;BME280;40174;52.364;6.452;2023-05-19T08:30:08;102489.56;;;15.77;77.21
54262;BME280;40174;52.364;6.452;2023-05-19T08:32:36;102484.13;;;15.78;77.04
54262;BME280;40174;52.364;6.452;2023-05-19T08:35:03;102479.41;;;15.93;75.62
54262;BME280;40174;52.364;6.452;2023-05-19T08:37:30;102483.06;;;15.92;69.93
54262;BME280;40174;52.364;6.452;2023-05-19T08:39:56;102477.38;;;16.08;70.87
54262;BME280;40174;52.364;6.452;2023-05-19T08:42:23;102473.63;;;16.22;69.83
54262;BME280;40174;52.364;6.452;2023-05-19T08:44:50;102478.72;;;16.36;68.45
54262;BME280;40174;52.364;6.452;2023-05-19T08:47:16;102473.50;;;16.57;71.39
54262;BME280;40174;52.364;6.452;2023-05-19T08:49:51;102470.22;;;16.54;66.01
54262;BME280;40174;52.364;6.452;2023-05-19T08:52:24;102467.91;;;16.72;65.70
54262;BME280;40174;52.364;6.452;2023-05-19T08:54:54;102466.09;;;16.61;64.97
54262;BME280;40174;52.364;6.452;2023-05-19T08:57:26;102469.25;;;16.89;61.86
54262;BME280;40174;52.364;6.452;2023-05-19T08:59:53;102457.66;;;17.11;62.19
54262;BME280;40174;52.364;6.452;2023-05-19T09:02:21;102448.75;;;17.21;60.77
54262;BME280;40174;52.364;6.452;2023-05-19T09:04:49;102445.44;;;17.29;59.70
54262;BME280;40174;52.364;6.452;2023-05-19T09:07:17;102446.91;;;17.54;60.35
54262;BME280;40174;52.364;6.452;2023-05-19T09:09:44;102455.56;;;17.67;57.96
54262;BME280;40174;52.364;6.452;2023-05-19T09:12:12;102446.50;;;17.59;57.04
54262;BME280;40174;52.364;6.452;2023-05-19T09:14:39;102443.38;;;17.75;56.44
54262;BME280;40174;52.364;6.452;2023-05-19T09:17:06;102448.59;;;17.76;55.67
54262;BME280;40174;52.364;6.452;2023-05-19T09:19:32;102447.38;;;17.80;56.98
54262;BME280;40174;52.364;6.452;2023-05-19T09:22:01;102453.50;;;17.92;55.61
54262;BME280;40174;52.364;6.452;2023-05-19T09:24:29;102451.41;;;18.26;55.91
54262;BME280;40174;52.364;6.452;2023-05-19T09:26:56;102444.53;;;18.34;55.74
54262;BME280;40174;52.364;6.452;2023-05-19T09:29:23;102442.38;;;18.58;54.45
54262;BME280;40174;52.364;6.452;2023-05-19T09:31:51;102450.69;;;18.65;55.03
54262;BME280;40174;52.364;6.452;2023-05-19T09:34:19;102454.72;;;18.80;53.12
54262;BME280;40174;52.364;6.452;2023-05-19T09:36:47;102448.81;;;18.86;51.58
54262;BME280;40174;52.364;6.452;2023-05-19T09:39:17;102448.13;;;18.94;50.42
54262;BME280;40174;52.364;6.452;2023-05-19T09:41:44;102449.81;;;19.05;51.10
54262;BME280;40174;52.364;6.452;2023-05-19T09:44:12;102437.13;;;19.17;51.55
54262;BME280;40174;52.364;6.452;2023-05-19T09:46:46;102446.47;;;19.42;50.55
54262;BME280;40174;52.364;6.452;2023-05-19T09:49:17;102432.88;;;19.72;50.87
54262;BME280;40174;52.364;6.452;2023-05-19T09:51:44;102431.28;;;19.80;48.93
54262;BME280;40174;52.364;6.452;2023-05-19T09:54:13;102446.59;;;19.60;48.26
54262;BME280;40174;52.364;6.452;2023-05-19T09:56:41;102424.81;;;19.82;51.83
54262;BME280;40174;52.364;6.452;2023-05-19T09:59:08;102434.50;;;20.03;47.83
54262;BME280;40174;52.364;6.452;2023-05-19T10:01:36;102426.16;;;20.06;48.35
54262;BME280;40174;52.364;6.452;2023-05-19T10:04:05;102420.56;;;20.27;48.71
54262;BME280;40174;52.364;6.452;2023-05-19T10:06:32;102406.78;;;20.12;47.36
54262;BME280;40174;52.364;6.452;2023-05-19T10:08:59;102426.59;;;20.29;47.39
54262;BME280;40174;52.364;6.452;2023-05-19T10:11:28;102433.34;;;20.43;45.36
54262;BME280;40174;52.364;6.452;2023-05-19T10:13:57;102434.97;;;20.53;46.43
54262;BME280;40174;52.364;6.452;2023-05-19T10:16:25;102424.91;;;20.65;45.64
54262;BME280;40174;52.364;6.452;2023-05-19T10:18:54;102424.63;;;20.86;45.66
54262;BME280;40174;52.364;6.452;2023-05-19T10:21:23;102429.44;;;20.83;43.32
54262;BME280;40174;52.364;6.452;2023-05-19T10:23:50;102411.72;;;20.72;43.80
54262;BME280;40174;52.364;6.452;2023-05-19T10:26:16;102423.81;;;20.76;44.04
54262;BME280;40174;52.364;6.452;2023-05-19T10:28:44;102411.31;;;20.85;43.71
54262;BME280;40174;52.364;6.452;2023-05-19T10:31:16;102414.41;;;21.08;45.21
54262;BME280;40174;52.364;6.452;2023-05-19T10:33:54;102414.41;;;21.08;43.40
54262;BME280;40174;52.364;6.452;2023-05-19T10:36:36;102397.47;;;21.33;45.09
54262;BME280;40174;52.364;6.452;2023-05-19T10:39:06;102393.03;;;21.42;43.75
54262;BME280;40174;52.364;6.452;2023-05-19T10:41:42;102389.41;;;21.33;44.15
54262;BME280;40174;52.364;6.452;2023-05-19T10:44:17;102392.38;;;21.66;47.88
54262;BME280;40174;52.364;6.452;2023-05-19T10:46:50;102386.25;;;21.82;44.88
54262;BME280;40174;52.364;6.452;2023-05-19T10:49:20;102386.88;;;21.76;42.92
54262;BME280;40174;52.364;6.452;2023-05-19T10:51:47;102390.81;;;21.90;41.22
54262;BME280;40174;52.364;6.452;2023-05-19T10:54:14;102392.59;;;21.73;40.87
54262;BME280;40174;52.364;6.452;2023-05-19T10:56:42;102389.28;;;21.87;42.83
54262;BME280;40174;52.364;6.452;2023-05-19T10:59:29;102393.91;;;21.69;41.17
54262;BME280;40174;52.364;6.452;2023-05-19T11:02:02;102382.31;;;21.76;41.88
54262;BME280;40174;52.364;6.452;2023-05-19T11:04:38;102392.09;;;22.12;42.48
54262;BME280;40174;52.364;6.452;2023-05-19T11:07:08;102397.16;;;22.15;40.40
54262;BME280;40174;52.364;6.452;2023-05-19T11:09:39;102396.59;;;21.69;39.67
54262;BME280;40174;52.364;6.452;2023-05-19T11:12:07;102396.94;;;22.08;41.27
54262;BME280;40174;52.364;6.452;2023-05-19T11:14:35;102387.50;;;22.30;41.16
54262;BME280;40174;52.364;6.452;2023-05-19T11:17:03;102388.69;;;22.36;38.39
54262;BME280;40174;52.364;6.452;2023-05-19T11:19:31;102382.16;;;22.47;39.36
54262;BME280;40174;52.364;6.452;2023-05-19T11:22:07;102383.88;;;22.56;39.75
54262;BME280;40174;52.364;6.452;2023-05-19T11:24:35;102375.72;;;22.31;39.77
54262;BME280;40174;52.364;6.452;2023-05-19T11:27:24;102382.59;;;22.26;40.31
54262;BME280;40174;52.364;6.452;2023-05-19T11:29:52;102382.44;;;22.27;39.34
54262;BME280;40174;52.364;6.452;2023-05-19T11:32:23;102381.25;;;22.30;39.35
54262;BME280;40174;52.364;6.452;2023-05-19T11:34:56;102378.75;;;22.36;39.06
54262;BME280;40174;52.364;6.452;2023-05-19T11:37:23;102371.38;;;22.38;39.30
54262;BME280;40174;52.364;6.452;2023-05-19T11:39:53;102367.28;;;22.26;38.97
54262;BME280;40174;52.364;6.452;2023-05-19T11:42:20;102368.97;;;21.93;38.78
54262;BME280;40174;52.364;6.452;2023-05-19T11:44:49;102367.03;;;21.77;39.25
54262;BME280;40174;52.364;6.452;2023-05-19T11:47:24;102361.84;;;22.18;39.97
54262;BME280;40174;52.364;6.452;2023-05-19T11:49:53;102363.31;;;22.12;39.42
54262;BME280;40174;52.364;6.452;2023-05-19T11:52:21;102366.00;;;22.04;39.18
54262;BME280;40174;52.364;6.452;2023-05-19T11:54:51;102342.72;;;22.29;39.48
54262;BME280;40174;52.364;6.452;2023-05-19T11:57:23;102351.03;;;22.60;37.57
54262;BME280;40174;52.364;6.452;2023-05-19T11:59:51;102356.97;;;22.80;38.03
54262;BME280;40174;52.364;6.452;2023-05-19T12:02:23;102352.25;;;22.74;39.44
54262;BME280;40174;52.364;6.452;2023-05-19T12:04:56;102344.00;;;22.76;38.86
54262;BME280;40174;52.364;6.452;2023-05-19T12:07:23;102344.81;;;22.93;37.38
54262;BME280;40174;52.364;6.452;2023-05-19T12:09:51;102340.94;;;22.95;36.80
54262;BME280;40174;52.364;6.452;2023-05-19T12:12:19;102351.25;;;23.41;39.80
54262;BME280;40174;52.364;6.452;2023-05-19T12:14:51;102355.06;;;23.79;39.84
54262;BME280;40174;52.364;6.452;2023-05-19T12:17:20;102343.88;;;23.74;35.95
54262;BME280;40174;52.364;6.452;2023-05-19T12:19:51;102359.00;;;24.08;36.75
54262;BME280;40174;52.364;6.452;2023-05-19T12:22:18;102352.44;;;24.02;36.56
54262;BME280;40174;52.364;6.452;2023-05-19T12:24:45;102352.34;;;23.79;35.88
54262;BME280;40174;52.364;6.452;2023-05-19T12:27:16;102343.88;;;23.74;36.73
54262;BME280;40174;52.364;6.452;2023-05-19T12:29:48;102335.28;;;23.79;37.20
54262;BME280;40174;52.364;6.452;2023-05-19T12:32:16;102334.66;;;23.77;35.73
54262;BME280;40174;52.364;6.452;2023-05-19T12:34:44;102323.69;;;23.70;36.52
54262;BME280;40174;52.364;6.452;2023-05-19T12:37:15;102333.47;;;23.63;36.08
54262;BME280;40174;52.364;6.452;2023-05-19T12:39:44;102338.44;;;23.27;36.21
54262;BME280;40174;52.364;6.452;2023-05-19T12:42:11;102330.44;;;23.66;36.08
54262;BME280;40174;52.364;6.452;2023-05-19T12:44:41;102315.53;;;23.86;35.64
54262;BME280;40174;52.364;6.452;2023-05-19T12:47:11;102323.16;;;24.14;36.45
54262;BME280;40174;52.364;6.452;2023-05-19T12:49:52;102314.03;;;23.84;35.86
54262;BME280;40174;52.364;6.452;2023-05-19T12:52:21;102304.50;;;24.04;35.45
54262;BME280;40174;52.364;6.452;2023-05-19T12:54:48;102326.47;;;23.93;38.61
54262;BME280;40174;52.364;6.452;2023-05-19T12:57:19;102314.81;;;23.37;36.03
54262;BME280;40174;52.364;6.452;2023-05-19T12:59:47;102319.34;;;23.44;35.71
54262;BME280;40174;52.364;6.452;2023-05-19T13:02:14;102321.22;;;23.44;36.73